Tokyo, Japan

11:13 AM JST on September 27, 2016 (GMT +0900)
Tokyo (Haneda) International | | Change Station

Elev 26 ft 35.55 °N, 139.78 °E | Updated 13 minutes ago

Partly Cloudy
Partly Cloudy
79 °F
Feels Like 79 °F
N
5
Wind Variable Wind from ENE

Today
High -- | Low -- °F
--% Chance of Precip.
Yesterday
High -- | Low -- °F
Precip. -- in
Pressure 30.04 in
Visibility 5.0 miles
Clouds Few 1000 ft
Dew Point 75 °F
Humidity 89%
Rainfall 0.00 in
Snow Depth Not available.
5:32 AM 5:30 PM
Waning Crescent, 15% visible
METAR RJTT 270200Z 07004KT 8000 FEW010 BKN/// 26/24 Q1017 NOSIG RMK 1ST010 A3005
Pressure 30.04 in
Visibility 5.0 miles
Clouds Few 1000 ft
Dew Point 75 °F
Humidity 89%
Rainfall 0.00 in
Snow Depth Not available.
5:32 AM 5:30 PM
Waning Crescent, 15% visible
METAR RJTT 270200Z 07004KT 8000 FEW010 BKN/// 26/24 Q1017 NOSIG RMK 1ST010 A3005

10-Day Weather Forecast

No radar image for this location.
×

Almanac

Astronomy

Sep. 27, 2016 Rise Set
Actual Time
Civil Twilight
Nautical Twilight
Astronomical Twilight
Moon
Length of Visible Light
Length of Day
Tomorrow will be .
, % of the Moon is Illuminated

Today's Extremes

Country Highs Country Lows

Community

WunderPhotos

Upload Photos

1,942,020 photos uploaded!

WunderBlog® & News

Nearby

Air Quality

  Air Quality AQ Index Pollutant
Not available.

Snow Depth

Station Depth Elevation

Earthquake Activity

City Distance Mag. Time & Date
Minimum magnitude displayed is 2.5.

Coastal Water Temperatures

Place Temperature

Stations

Nearby Weather Stations

Station Location Temp. Windchill Dew Point Humidity Wind Precip. Elev Updated Type